Time;durP1;ratioP1;P1;durP2;ratioP2;P2;SDS_P1;SDS_P2;PMS_P1;PMS_P2;Temp;Humidity;BMP_temperature;BMP_pressure;BME280_temperature;BME280_humidity;BME280_pressure;Samples;Min_cycle;Max_cycle;Signal;HPM_P1;HPM_P2
2022/10/14 00:01:17;;;;;;;37.60;22.93;;;;;;;9.80;81.77;100760.56;1721089;83;21072;-76
2022/10/14 00:03:46;;;;;;;32.80;21.87;;;;;;;9.74;82.05;100756.36;1722906;83;21512;-91
2022/10/14 00:06:19;;;;;;;37.13;22.97;;;;;;;9.75;82.46;100753.28;1721226;83;21040;-76
2022/10/14 00:08:46;;;;;;;31.77;21.80;;;;;;;9.72;82.18;100752.92;1708634;84;21067;-90
2022/10/14 00:11:20;;;;;;;30.12;19.60;;;;;;;9.63;82.17;100749.71;1721542;83;21746;-76
2022/10/14 00:13:48;;;;;;;32.63;21.83;;;;;;;9.56;81.95;100748.58;1721524;83;21529;-76
2022/10/14 00:16:28;;;;;;;33.40;20.70;;;;;;;9.49;82.04;100757.94;1721233;83;21046;-82
2022/10/14 00:18:56;;;;;;;;;;;;;;;9.41;82.11;100753.36;1724097;83;21470;-75
2022/10/14 00:21:26;;;;;;;30.70;20.83;;;;;;;9.38;82.94;100748.61;1721319;83;20503;-81
2022/10/14 00:23:54;;;;;;;35.93;22.70;;;;;;;9.43;83.28;100746.34;1721367;83;21075;-76
2022/10/14 00:26:26;;;;;;;32.63;22.90;;;;;;;9.46;83.44;100746.25;1721168;83;21004;-76
2022/10/14 00:28:53;;;;;;;31.20;21.07;;;;;;;9.47;83.63;100747.50;1721472;83;21082;-77
2022/10/14 00:31:22;;;;;;;30.80;21.40;;;;;;;9.47;83.36;100745.34;1708358;84;21003;-76
2022/10/14 00:33:49;;;;;;;29.77;20.00;;;;;;;9.40;82.91;100745.97;1721394;83;21101;-75
2022/10/14 00:36:20;;;;;;;31.10;21.60;;;;;;;9.35;82.97;100738.23;1721662;83;21831;-75
2022/10/14 00:38:48;;;;;;;39.07;23.43;;;;;;;9.30;83.03;100741.41;1708305;84;21017;-76
2022/10/14 00:41:20;;;;;;;50.77;28.13;;;;;;;9.26;82.96;100738.94;1717746;82;21488;-76
2022/10/14 00:44:16;;;;;;;51.77;27.40;;;;;;;9.24;83.35;100736.80;1697552;83;21036;-76
2022/10/14 00:46:49;;;;;;;45.63;26.20;;;;;;;9.20;82.97;100736.45;1674877;84;21583;-77
2022/10/14 00:49:24;;;;;;;42.17;24.93;;;;;;;9.11;82.93;100735.80;1699778;84;21795;-93
2022/10/14 00:52:01;;;;;;;40.13;22.63;;;;;;;9.04;82.68;100733.40;1700585;84;21043;-76
2022/10/14 00:54:36;;;;;;;41.93;23.27;;;;;;;8.94;82.60;100733.61;1716562;83;22125;-76
2022/10/14 00:57:04;;;;;;;42.00;24.60;;;;;;;8.86;82.57;100732.94;1716627;83;21071;-78
2022/10/14 00:59:33;;;;;;;42.97;25.27;;;;;;;8.81;83.03;100738.75;1697531;83;21142;-76
2022/10/14 01:02:00;;;;;;;39.70;23.87;;;;;;;8.78;83.52;100730.95;1716925;83;21158;-80
2022/10/14 01:04:27;;;;;;;33.87;23.47;;;;;;;8.83;83.94;100729.09;1697592;83;21072;-80
2022/10/14 01:07:08;;;;;;;36.40;23.77;;;;;;;8.75;83.39;100728.42;1716698;83;21003;-75
2022/10/14 01:10:08;;;;;;;35.80;23.63;;;;;;;8.74;83.55;100723.25;1688501;83;21028;-78
2022/10/14 01:12:52;;;;;;;31.30;22.42;;;;;;;8.66;83.28;100724.73;1700414;84;21288;-75
2022/10/14 01:15:30;;;;;;;34.03;23.03;;;;;;;8.60;83.19;100725.73;1715708;83;21133;-78
2022/10/14 01:18:14;;;;;;;35.30;22.47;;;;;;;8.56;83.62;100729.30;1686224;84;21027;-78
2022/10/14 01:21:12;;;;;;;35.40;23.33;;;;;;;8.53;83.60;100725.91;1696719;83;21032;-76
2022/10/14 01:24:21;;;;;;;33.87;22.50;;;;;;;8.45;83.75;100724.77;1700066;84;21508;-78
2022/10/14 01:27:10;;;;;;;34.87;22.77;;;;;;;8.36;83.43;100731.04;1716261;83;20996;-92
2022/10/14 01:30:17;;;;;;;33.10;21.93;;;;;;;8.31;83.52;100727.66;1698002;83;21138;-75
2022/10/14 01:33:10;;;;;;;42.63;27.37;;;;;;;8.27;84.02;100720.36;1716440;83;21000;-75
2022/10/14 01:35:58;;;;;;;34.70;22.23;;;;;;;8.29;84.67;100715.56;1675455;84;21560;-87
2022/10/14 01:38:33;;;;;;;34.60;22.80;;;;;;;8.28;84.37;100718.59;1694418;83;21063;-75
2022/10/14 01:41:13;;;;;;;32.37;21.97;;;;;;;8.32;84.86;100721.57;1652740;85;21097;-77
2022/10/14 01:43:43;;;;;;;33.80;22.13;;;;;;;8.29;84.53;100715.56;1662550;85;21156;-76
2022/10/14 01:46:12;;;;;;;34.13;21.27;;;;;;;8.23;84.37;100711.31;1668831;85;21532;-80
2022/10/14 01:48:45;;;;;;;36.40;21.40;;;;;;;8.19;84.12;100709.22;1668835;84;22098;-91
2022/10/14 01:51:26;;;;;;;33.37;22.50;;;;;;;8.17;84.16;100708.84;1650067;86;21054;-82
2022/10/14 01:54:01;;;;;;;33.20;21.17;;;;;;;8.15;84.58;100704.13;1665457;84;21026;-78
2022/10/14 01:56:31;;;;;;;37.93;24.23;;;;;;;8.15;84.63;100704.98;1662662;85;21103;-75
2022/10/14 01:59:01;;;;;;;35.20;23.63;;;;;;;8.17;84.76;100704.47;1649629;85;21082;-75
2022/10/14 02:01:31;;;;;;;36.53;24.77;;;;;;;8.20;84.85;100702.24;1669036;85;21048;-75
2022/10/14 02:03:58;;;;;;;38.13;24.40;;;;;;;8.22;85.29;100693.94;1668901;85;21038;-76
2022/10/14 02:06:36;;;;;;;39.17;25.43;;;;;;;8.31;85.61;100696.33;1669153;84;21038;-87
2022/10/14 02:09:29;;;;;;;36.60;24.97;;;;;;;8.32;85.51;100693.30;1668887;84;21988;-76
2022/10/14 02:12:11;;;;;;;43.53;27.07;;;;;;;8.37;85.84;100696.62;1669132;84;21100;-76
2022/10/14 02:15:13;;;;;;;36.97;26.23;;;;;;;8.49;86.54;100695.94;1651800;84;21464;-76
2022/10/14 02:18:04;;;;;;;42.30;27.07;;;;;;;8.58;86.52;100697.92;1669041;84;21432;-76
2022/10/14 02:20:34;;;;;;;;;;;;;;;8.63;86.72;100694.76;1671353;84;21093;-82
2022/10/14 02:23:17;;;;;;;43.80;29.37;;;;;;;8.69;87.14;100690.23;1669191;84;21083;-75
2022/10/14 02:25:46;;;;;;;47.17;29.03;;;;;;;8.77;87.34;100689.19;1668811;84;21560;-75
2022/10/14 02:28:19;;;;;;;48.02;30.77;;;;;;;8.86;87.15;100700.72;1669140;85;21074;-84
2022/10/14 02:30:53;;;;;;;48.63;29.77;;;;;;;8.88;86.98;100700.23;1668756;84;21050;-82
2022/10/14 02:33:23;;;;;;;43.63;30.40;;;;;;;8.94;87.13;100702.69;1668742;85;21011;-75
2022/10/14 02:35:51;;;;;;;;;;;;;;;8.99;87.22;100696.90;1671405;85;21915;-76
2022/10/14 02:38:19;;;;;;;45.80;29.53;;;;;;;9.03;87.38;100693.75;1669120;84;20174;-90
2022/10/14 02:40:49;;;;;;;50.03;31.83;;;;;;;9.05;87.27;100695.42;1671980;84;21041;-78
2022/10/14 02:43:17;;;;;;;50.65;32.93;;;;;;;9.10;87.27;100689.62;1681826;84;21065;-77
2022/10/14 02:45:44;;;;;;;47.63;30.93;;;;;;;9.12;87.25;100694.37;1681230;84;21475;-88
2022/10/14 02:48:12;;;;;;;49.37;31.00;;;;;;;9.15;87.52;100692.98;1681911;84;21167;-76
2022/10/14 02:50:41;;;;;;;45.73;31.70;;;;;;;9.20;87.58;100686.77;1681645;84;21018;-75
2022/10/14 02:53:11;;;;;;;57.70;35.93;;;;;;;9.21;87.48;100691.97;1681723;84;21489;-75
2022/10/14 02:55:38;;;;;;;56.08;33.95;;;;;;;9.23;87.74;100677.09;1681387;84;21492;-91
2022/10/14 02:58:05;;;;;;;56.33;34.73;;;;;;;9.23;87.47;100682.33;1681824;84;21046;-76
2022/10/14 03:00:32;;;;;;;52.87;33.57;;;;;;;9.24;87.72;100674.87;1682184;84;21348;-75
2022/10/14 03:03:00;;;;;;;51.40;32.60;;;;;;;9.26;87.67;100686.17;1681868;84;21026;-89
2022/10/14 03:05:28;;;;;;;49.97;33.20;;;;;;;9.28;87.75;100678.27;1681822;84;21483;-76
2022/10/14 03:07:55;;;;;;;45.63;30.23;;;;;;;9.30;87.86;100681.70;1681929;84;21510;-77
2022/10/14 03:10:23;;;;;;;45.47;30.27;;;;;;;9.33;87.74;100683.77;1682031;84;21041;-82
2022/10/14 03:12:51;;;;;;;47.57;31.13;;;;;;;9.32;87.58;100688.61;1681838;84;21153;-78
2022/10/14 03:15:22;;;;;;;49.53;30.93;;;;;;;9.36;87.81;100688.06;1682009;84;21037;-90
2022/10/14 03:17:49;;;;;;;44.93;29.70;;;;;;;9.37;87.70;100685.42;1681838;84;21018;-76
2022/10/14 03:20:18;;;;;;;49.77;30.80;;;;;;;9.39;87.60;100682.75;1682047;84;21025;-75
2022/10/14 03:22:47;;;;;;;45.10;29.43;;;;;;;9.40;87.69;100681.02;1681993;84;21162;-88
2022/10/14 03:25:15;;;;;;;47.70;31.60;;;;;;;9.40;87.54;100679.25;1681373;83;21539;-75
2022/10/14 03:27:44;;;;;;;48.33;30.27;;;;;;;9.41;87.59;100677.48;1681749;84;21038;-75
2022/10/14 03:30:14;;;;;;;44.20;30.30;;;;;;;9.41;87.66;100683.57;1681821;84;21539;-75
2022/10/14 03:32:46;;;;;;;48.27;31.23;;;;;;;9.42;87.62;100681.35;1681698;83;21066;-75
2022/10/14 03:35:27;;;;;;;43.40;29.97;;;;;;;9.42;87.63;100683.11;1681555;84;21504;-76
2022/10/14 03:37:55;;;;;;;46.93;29.80;;;;;;;9.43;87.75;100688.78;1682009;84;21523;-75
2022/10/14 03:40:24;;;;;;;45.43;29.93;;;;;;;9.44;87.51;100694.41;1681956;84;21073;-75
2022/10/14 03:42:51;;;;;;;54.83;32.67;;;;;;;9.37;87.05;100698.50;1679809;84;21500;-84
2022/10/14 03:45:20;;;;;;;47.70;31.47;;;;;;;9.33;87.00;100702.54;1669074;85;21014;-89
2022/10/14 03:47:48;;;;;;;51.40;31.83;;;;;;;9.34;87.17;100700.36;1695593;83;21020;-87
2022/10/14 03:50:15;;;;;;;47.63;31.93;;;;;;;9.34;87.29;100700.36;1692360;84;21106;-78
2022/10/14 03:52:47;;;;;;;44.37;29.77;;;;;;;9.35;87.38;100698.98;1662892;85;21083;-75
2022/10/14 03:55:19;;;;;;;47.57;30.10;;;;;;;9.32;87.23;100700.84;1655922;85;21584;-76
2022/10/14 03:57:47;;;;;;;47.77;31.33;;;;;;;9.31;87.38;100696.06;1679813;84;21049;-90
2022/10/14 04:00:16;;;;;;;44.77;30.70;;;;;;;9.30;87.41;100693.47;1671039;85;21041;-80
2022/10/14 04:02:43;;;;;;;43.80;29.43;;;;;;;9.30;87.72;100689.09;1668934;85;21119;-75
2022/10/14 04:05:15;;;;;;;46.20;30.23;;;;;;;9.34;87.93;100695.13;1692076;84;21067;-76
2022/10/14 04:07:44;;;;;;;51.20;31.77;;;;;;;9.34;87.80;100691.20;1679872;84;21090;-90
2022/10/14 04:10:12;;;;;;;51.50;33.60;;;;;;;9.33;87.87;100685.54;1668946;85;21457;-80
2022/10/14 04:12:42;;;;;;;55.23;34.33;;;;;;;9.34;87.79;100684.66;1692509;84;21043;-75
2022/10/14 04:15:14;;;;;;;49.57;32.00;;;;;;;9.36;88.23;100685.45;1679601;84;21158;-75
2022/10/14 04:17:43;;;;;;;52.70;32.60;;;;;;;9.35;88.03;100679.37;1669399;84;21018;-77
2022/10/14 04:20:12;;;;;;;52.07;32.80;;;;;;;9.37;88.09;100685.88;1692300;84;21000;-76
2022/10/14 04:22:39;;;;;;;45.70;31.13;;;;;;;9.36;88.10;100682.83;1692177;84;21044;-76
2022/10/14 04:25:08;;;;;;;46.53;31.27;;;;;;;9.37;88.10;100684.57;1662895;85;21023;-82
2022/10/14 04:27:36;;;;;;;43.60;30.57;;;;;;;9.37;88.20;100685.88;1679769;84;21154;-76
2022/10/14 04:30:06;;;;;;;48.90;30.93;;;;;;;9.35;87.94;100689.83;1676180;84;21081;-75
2022/10/14 04:32:35;;;;;;;49.60;31.87;;;;;;;9.33;88.14;100685.54;1690857;84;21102;-75
2022/10/14 04:35:05;;;;;;;45.13;29.87;;;;;;;9.35;88.32;100679.82;1692563;84;21525;-76
2022/10/14 04:37:32;;;;;;;45.97;30.73;;;;;;;9.37;88.40;100679.34;1662847;85;21095;-75
2022/10/14 04:40:05;;;;;;;49.83;31.60;;;;;;;9.38;88.37;100673.20;1661943;85;21126;-76
2022/10/14 04:42:32;;;;;;;45.87;30.27;;;;;;;9.35;88.32;100676.75;1679676;84;21574;-75
2022/10/14 04:45:02;;;;;;;50.97;31.67;;;;;;;9.35;88.34;100678.05;1692254;84;21521;-86
2022/10/14 04:47:31;;;;;;;42.57;30.37;;;;;;;9.31;88.07;100671.63;1663067;84;21026;-76
2022/10/14 04:49:59;;;;;;;42.80;29.73;;;;;;;9.31;88.23;100665.09;1679809;84;21022;-87
2022/10/14 04:52:27;;;;;;;42.47;29.37;;;;;;;9.26;87.87;100673.55;1668849;85;21132;-77
2022/10/14 04:54:56;;;;;;;45.93;28.77;;;;;;;9.19;87.66;100669.36;1692323;84;21012;-91
2022/10/14 04:57:25;;;;;;;47.23;31.53;;;;;;;9.14;87.62;100667.75;1692375;84;21032;-75
2022/10/14 04:59:52;;;;;;;42.40;28.87;;;;;;;9.09;87.93;100663.51;1662780;85;21024;-76
2022/10/14 05:02:21;;;;;;;42.30;28.40;;;;;;;9.05;87.74;100660.58;1679887;84;21174;-76
2022/10/14 05:04:50;;;;;;;46.23;27.33;;;;;;;9.02;87.63;100664.13;1665887;84;21395;-74
2022/10/14 05:07:17;;;;;;;46.97;30.47;;;;;;;8.93;87.45;100660.01;1665996;85;21618;-74
2022/10/14 05:09:45;;;;;;;51.77;32.10;;;;;;;8.92;88.16;100659.61;1666400;84;21043;-88
2022/10/14 05:12:13;;;;;;;47.27;30.17;;;;;;;8.96;88.49;100658.22;1664269;84;21547;-74
2022/10/14 05:14:42;;;;;;;47.40;31.80;;;;;;;8.98;88.41;100666.44;1666291;84;21046;-76
2022/10/14 05:17:14;;;;;;;53.50;32.23;;;;;;;8.97;88.67;100662.08;1665109;84;21147;-73
2022/10/14 05:19:41;;;;;;;49.53;31.33;;;;;;;9.00;88.90;100662.45;1666230;84;21030;-86
2022/10/14 05:22:09;;;;;;;53.27;33.87;;;;;;;9.01;88.61;100661.58;1665183;84;21025;-74
2022/10/14 05:24:38;;;;;;;49.70;33.13;;;;;;;9.00;88.94;100655.47;1665236;84;21034;-75
2022/10/14 05:27:05;;;;;;;51.77;34.67;;;;;;;9.03;89.17;100654.07;1665876;84;21269;-74
2022/10/14 05:29:33;;;;;;;51.27;33.93;;;;;;;9.05;89.30;100646.20;1665499;84;21081;-74
2022/10/14 05:32:00;;;;;;;53.10;34.13;;;;;;;9.07;89.36;100657.03;1646039;84;21035;-73
2022/10/14 05:34:32;;;;;;;51.80;33.70;;;;;;;9.10;89.51;100651.72;1665032;84;22206;-72
2022/10/14 05:36:59;;;;;;;63.33;37.63;;;;;;;9.15;89.54;100645.06;1665427;84;21049;-81
2022/10/14 05:39:27;;;;;;;54.70;35.17;;;;;;;9.15;89.41;100647.22;1665506;84;21037;-74
2022/10/14 05:41:55;;;;;;;54.70;34.13;;;;;;;9.20;89.50;100645.80;1663141;84;21332;-73
2022/10/14 05:44:24;;;;;;;50.33;31.80;;;;;;;9.22;89.53;100638.75;1687166;84;21051;-73
2022/10/14 05:46:52;;;;;;;52.03;33.20;;;;;;;9.24;89.57;100643.49;1687935;84;21071;-73
2022/10/14 05:49:19;;;;;;;54.93;33.40;;;;;;;9.30;89.54;100639.84;1687959;84;21068;-74
2022/10/14 05:51:48;;;;;;;48.70;34.13;;;;;;;9.31;89.47;100643.74;1687736;84;21067;-73
2022/10/14 05:54:16;;;;;;;51.17;32.83;;;;;;;9.33;89.44;100647.61;1686655;84;21792;-73
2022/10/14 05:56:44;;;;;;;50.20;32.67;;;;;;;9.35;89.45;100647.13;1663912;86;21038;-74
2022/10/14 05:59:12;;;;;;;48.70;32.93;;;;;;;9.38;89.53;100641.80;1687700;84;21029;-74
2022/10/14 06:01:40;;;;;;;45.53;31.83;;;;;;;9.40;89.46;100633.92;1686878;84;21028;-74
2022/10/14 06:04:07;;;;;;;45.37;30.80;;;;;;;9.40;89.39;100641.31;1687953;84;21063;-75
2022/10/14 06:06:33;;;;;;;45.23;31.90;;;;;;;9.41;89.28;100643.47;1687451;84;21967;-75
2022/10/14 06:09:01;;;;;;;49.10;32.30;;;;;;;9.45;89.42;100638.13;1687214;84;21064;-75
2022/10/14 06:11:28;;;;;;;51.63;33.63;;;;;;;9.46;89.37;100643.75;1687619;84;21341;-75
2022/10/14 06:13:55;;;;;;;51.47;34.67;;;;;;;9.48;89.43;100640.65;1687946;84;21025;-75
2022/10/14 06:16:23;;;;;;;60.50;35.17;;;;;;;9.53;89.62;100641.80;1688059;84;21064;-81
2022/10/14 06:18:50;;;;;;;53.83;34.57;;;;;;;9.56;89.57;100641.28;1687732;84;22474;-75
2022/10/14 06:21:17;;;;;;;55.07;34.60;;;;;;;9.61;89.71;100642.44;1687892;84;21055;-76
2022/10/14 06:23:43;;;;;;;59.20;35.70;;;;;;;9.68;89.79;100641.83;1687125;84;21123;-75
2022/10/14 06:26:10;;;;;;;50.17;34.47;;;;;;;9.72;89.82;100637.75;1686934;84;21088;-75
2022/10/14 06:28:38;;;;;;;54.53;34.37;;;;;;;9.74;89.75;100641.19;1687774;84;21106;-76
2022/10/14 06:31:06;;;;;;;55.67;35.70;;;;;;;9.78;89.81;100640.20;1690032;84;21575;-76
2022/10/14 06:33:33;;;;;;;53.20;34.00;;;;;;;9.83;89.86;100643.52;1661133;85;21058;-91
2022/10/14 06:36:05;;;;;;;49.10;31.40;;;;;;;9.89;89.77;100648.17;1661194;85;21050;-76
2022/10/14 06:38:33;;;;;;;52.17;33.53;;;;;;;9.89;89.66;100648.17;1661083;85;21035;-76
2022/10/14 06:41:00;;;;;;;50.57;33.17;;;;;;;9.92;89.75;100647.64;1661205;85;21055;-76
2022/10/14 06:43:27;;;;;;;49.40;34.13;;;;;;;9.96;89.91;100647.94;1666000;84;21079;-76
2022/10/14 06:45:57;;;;;;;51.77;33.60;;;;;;;10.02;89.87;100652.98;1677175;84;21057;-76
2022/10/14 06:48:24;;;;;;;48.90;32.80;;;;;;;10.08;89.89;100651.94;1677686;84;21524;-76
2022/10/14 06:50:52;;;;;;;48.63;32.60;;;;;;;10.15;90.02;100650.00;1677338;84;21018;-76
2022/10/14 06:53:20;;;;;;;50.23;32.67;;;;;;;10.22;90.02;100654.98;1677198;84;21077;-76
2022/10/14 06:55:47;;;;;;;44.50;31.37;;;;;;;10.31;90.14;100653.89;1677628;84;21117;-76
2022/10/14 06:58:14;;;;;;;46.20;32.33;;;;;;;10.39;90.10;100653.63;1677168;84;21470;-76
2022/10/14 07:00:41;;;;;;;50.20;32.80;;;;;;;10.44;89.91;100656.50;1682221;84;21554;-78
2022/10/14 07:03:08;;;;;;;53.87;33.73;;;;;;;10.52;89.88;100658.02;1681885;84;21096;-77
2022/10/14 07:05:35;;;;;;;52.07;36.07;;;;;;;10.58;89.86;100664.37;1682190;84;21037;-82
2022/10/14 07:08:03;;;;;;;49.80;33.87;;;;;;;10.65;89.83;100661.50;1681909;84;21333;-76
2022/10/14 07:10:30;;;;;;;46.20;31.53;;;;;;;10.74;89.63;100666.04;1682098;84;21002;-76
2022/10/14 07:12:57;;;;;;;46.37;31.10;;;;;;;10.81;89.53;100664.91;1681868;84;21053;-76
2022/10/14 07:15:24;;;;;;;49.67;32.48;;;;;;;10.87;89.44;100667.34;1682155;84;21014;-76
2022/10/14 07:17:51;;;;;;;46.13;31.20;;;;;;;10.94;89.36;100659.66;1682274;84;21081;-76
2022/10/14 07:20:18;;;;;;;46.33;32.10;;;;;;;11.01;89.12;100664.25;1681935;84;21087;-76
2022/10/14 07:22:45;;;;;;;49.55;33.00;;;;;;;11.06;89.02;100663.18;1682032;84;21045;-76
2022/10/14 07:25:13;;;;;;;44.90;32.05;;;;;;;11.09;88.80;100662.22;1681944;84;21038;-78
2022/10/14 07:27:40;;;;;;;47.33;32.40;;;;;;;11.16;88.96;100667.63;1682163;84;20999;-76
2022/10/14 07:30:10;;;;;;;46.47;31.13;;;;;;;11.22;88.82;100668.72;1681866;84;21496;-89
2022/10/14 07:32:37;;;;;;;43.92;30.72;;;;;;;11.26;88.80;100669.03;1682192;84;21780;-77
2022/10/14 07:35:05;;;;;;;46.15;30.57;;;;;;;11.34;88.81;100666.14;1681813;84;21028;-76
2022/10/14 07:37:32;;;;;;;39.27;29.12;;;;;;;11.38;88.72;100663.33;1681862;84;21526;-76
2022/10/14 07:39:59;;;;;;;43.85;31.23;;;;;;;11.45;88.63;100668.38;1682120;84;21507;-76
2022/10/14 07:42:26;;;;;;;46.70;31.55;;;;;;;11.51;88.55;100661.13;1682108;84;21025;-76
2022/10/14 07:44:53;;;;;;;47.98;31.85;;;;;;;11.55;88.37;100665.34;1681875;84;21148;-76
2022/10/14 07:47:20;;;;;;;45.52;30.70;;;;;;;11.57;88.18;100660.89;1682084;84;21025;-76
2022/10/14 07:49:48;;;;;;;43.87;30.35;;;;;;;11.63;88.22;100662.44;1682185;84;21011;-76
2022/10/14 07:52:14;;;;;;;49.73;31.65;;;;;;;;;;1687690;84;21031;-76
2022/10/14 07:54:41;;;;;;;49.38;32.58;;;;;;;11.79;88.17;100654.84;1708602;84;21051;-76
2022/10/14 07:57:08;;;;;;;58.00;33.53;;;;;;;11.86;88.04;100659.00;1721210;83;21102;-76
2022/10/14 07:59:36;;;;;;;51.35;33.23;;;;;;;11.95;87.89;100663.89;1690875;84;21052;-76
2022/10/14 08:02:03;;;;;;;51.90;32.53;;;;;;;12.00;87.60;100661.09;1721101;83;21285;-89
2022/10/14 08:04:31;;;;;;;54.95;33.65;;;;;;;12.08;87.62;100665.56;1708536;84;21529;-76
2022/10/14 08:06:58;;;;;;;46.28;30.88;;;;;;;12.13;87.38;100662.30;1721238;83;21015;-76
2022/10/14 08:09:25;;;;;;;49.20;31.75;;;;;;;12.19;87.39;100663.83;1691069;84;21982;-84
2022/10/14 08:11:52;;;;;;;47.90;32.85;;;;;;;12.23;87.12;100657.09;1721140;83;21094;-76
2022/10/14 08:14:19;;;;;;;44.77;31.15;;;;;;;12.28;86.98;100655.14;1721461;83;21035;-77
2022/10/14 08:16:46;;;;;;;55.92;32.75;;;;;;;12.34;86.90;100659.76;1721240;83;21376;-76
2022/10/14 08:19:14;;;;;;;54.93;32.78;;;;;;;12.39;86.89;100661.28;1721138;83;21494;-76
2022/10/14 08:21:42;;;;;;;59.45;34.55;;;;;;;12.45;86.79;100659.71;1721086;83;21141;-76
2022/10/14 08:24:10;;;;;;;43.15;30.72;;;;;;;12.53;86.67;100656.78;1721378;83;21507;-76
2022/10/14 08:26:42;;;;;;;48.42;30.88;;;;;;;12.60;86.66;100655.59;1721269;83;21481;-76
2022/10/14 08:29:10;;;;;;;42.20;28.73;;;;;;;12.71;86.82;100654.68;1720559;83;21571;-76
2022/10/14 08:31:38;;;;;;;44.73;29.32;;;;;;;12.87;86.80;100660.16;1720827;83;21161;-76
2022/10/14 08:34:05;;;;;;;43.30;30.10;;;;;;;12.97;86.58;100667.22;1721154;83;21140;-76
2022/10/14 08:36:33;;;;;;;42.73;29.67;;;;;;;13.02;86.34;100658.64;1721082;83;21528;-76
2022/10/14 08:39:00;;;;;;;39.30;29.05;;;;;;;13.04;86.16;100656.80;1721345;83;21576;-76
2022/10/14 08:41:56;;;;;;;38.48;28.20;;;;;;;13.11;86.24;100659.58;1721125;83;21022;-76
2022/10/14 08:44:41;;;;;;;41.33;29.15;;;;;;;13.15;85.94;100658.98;1700725;83;21527;-76
2022/10/14 08:47:13;;;;;;;42.40;28.15;;;;;;;13.22;85.67;100656.92;1643723;86;21066;-91
2022/10/14 08:50:08;;;;;;;40.83;28.80;;;;;;;13.28;85.39;100653.61;1643818;86;21013;-76
2022/10/14 08:53:13;;;;;;;40.35;28.30;;;;;;;13.32;85.10;100648.59;1668135;85;21594;-76
2022/10/14 08:55:47;;;;;;;40.92;29.60;;;;;;;13.45;84.84;100649.38;1668276;85;21072;-76
2022/10/14 08:58:44;;;;;;;39.08;27.52;;;;;;;13.53;85.04;100656.47;1671614;84;21065;-76
2022/10/14 09:01:30;;;;;;;39.42;29.02;;;;;;;13.63;85.16;100650.30;1643984;86;21874;-80
2022/10/14 09:04:05;;;;;;;42.88;29.20;;;;;;;13.77;85.01;100651.84;1649674;85;21066;-81
2022/10/14 09:06:39;;;;;;;34.92;26.65;;;;;;;13.88;84.89;100648.70;1643936;86;21106;-91
2022/10/14 09:09:29;;;;;;;37.95;28.02;;;;;;;13.95;84.57;100645.72;1668162;85;20990;-76
2022/10/14 09:12:00;;;;;;;38.40;28.67;;;;;;;14.06;84.46;100646.53;1652530;85;21033;-92
2022/10/14 09:14:38;;;;;;;42.13;29.20;;;;;;;14.09;84.02;100647.70;1652388;85;21152;-77
2022/10/14 09:17:19;;;;;;;39.27;27.20;;;;;;;14.14;84.11;100651.45;1651987;85;21037;-76
2022/10/14 09:19:59;;;;;;;41.02;28.50;;;;;;;14.19;84.07;100649.42;1668241;84;21050;-87
2022/10/14 09:22:27;;;;;;;38.98;27.80;;;;;;;14.24;83.95;100644.78;1668483;84;21065;-93
2022/10/14 09:24:56;;;;;;;38.23;27.50;;;;;;;14.29;83.83;100648.05;1685470;84;21157;-77
2022/10/14 09:27:23;;;;;;;35.23;27.23;;;;;;;14.39;83.83;100652.44;1694919;83;21107;-78
2022/10/14 09:30:00;;;;;;;39.67;27.40;;;;;;;14.47;83.65;100649.80;1677143;84;21796;-77
2022/10/14 09:32:42;;;;;;;39.50;27.73;;;;;;;14.56;83.54;100650.31;1684513;84;21039;-76
2022/10/14 09:35:16;;;;;;;34.18;25.80;;;;;;;14.62;83.07;100649.53;1716407;83;20946;-76
2022/10/14 09:37:43;;;;;;;33.38;25.20;;;;;;;14.74;83.04;100649.38;1716573;83;21272;-76
2022/10/14 09:40:31;;;;;;;33.30;25.02;;;;;;;14.90;82.85;100654.27;1686313;84;21465;-89
2022/10/14 09:43:12;;;;;;;35.38;25.55;;;;;;;15.04;82.46;100646.96;1672930;84;21028;-76
2022/10/14 09:45:47;;;;;;;31.85;24.77;;;;;;;15.22;82.41;100651.77;1674117;85;21059;-76
2022/10/14 09:48:25;;;;;;;34.03;25.57;;;;;;;15.37;81.92;100650.95;1707550;83;21030;-76
2022/10/14 09:50:55;;;;;;;33.50;23.38;;;;;;;15.46;81.46;100650.92;1670259;84;21498;-76
2022/10/14 09:53:28;;;;;;;36.28;25.32;;;;;;;15.57;81.44;100646.38;1721345;83;21779;-88
2022/10/14 09:56:00;;;;;;;33.55;23.98;;;;;;;15.66;81.00;100647.67;1708305;84;21087;-86
2022/10/14 09:58:32;;;;;;;34.45;24.47;;;;;;;15.79;80.70;100649.59;1721278;83;21031;-76
2022/10/14 10:01:01;;;;;;;32.30;22.93;;;;;;;15.90;80.06;100646.37;1721026;83;21068;-92
2022/10/14 10:03:38;;;;;;;31.55;23.12;;;;;;;15.96;79.86;100646.05;1690743;84;22086;-90
2022/10/14 10:06:10;;;;;;;31.25;22.37;;;;;;;16.06;79.45;100649.02;1708242;84;21128;-76
2022/10/14 10:08:42;;;;;;;28.32;22.20;;;;;;;16.10;79.18;100647.93;1721069;83;21046;-76
2022/10/14 10:11:12;;;;;;;30.20;21.05;;;;;;;16.18;78.99;100644.83;1717721;83;21048;-76
2022/10/14 10:13:47;;;;;;;;;;;;;;;16.25;78.54;100640.44;1723685;83;21027;-76
2022/10/14 10:16:25;;;;;;;28.83;19.20;;;;;;;16.30;78.15;100640.66;1721048;83;20691;-77
2022/10/14 10:18:54;;;;;;;24.18;17.52;;;;;;;16.30;78.05;100638.86;1707507;83;21158;-92
2022/10/14 10:21:32;;;;;;;26.45;18.45;;;;;;;16.38;77.51;100635.75;1721490;83;26692;-76
2022/10/14 10:24:01;;;;;;;26.23;18.73;;;;;;;16.40;77.50;100633.87;1689953;84;21522;-90
2022/10/14 10:26:33;;;;;;;23.10;18.10;;;;;;;16.53;77.57;100633.56;1721021;83;20999;-76
2022/10/14 10:29:04;;;;;;;25.12;17.00;;;;;;;16.62;77.03;100634.34;1708422;84;21007;-76
2022/10/14 10:31:49;;;;;;;22.00;18.10;;;;;;;16.73;77.09;100634.55;1721309;83;21111;-86
2022/10/14 10:34:46;;;;;;;21.05;16.70;;;;;;;16.87;76.68;100625.83;1720717;83;21064;-76
2022/10/14 10:37:29;;;;;;;22.75;16.45;;;;;;;16.95;76.19;100624.90;1721019;83;20913;-76
2022/10/14 10:40:23;;;;;;;22.60;16.85;;;;;;;17.03;75.48;100620.95;1721051;83;21050;-85
2022/10/14 10:43:26;;;;;;;23.67;17.00;;;;;;;17.03;74.99;100619.16;1719221;81;21028;-86
2022/10/14 10:46:16;;;;;;;18.65;14.68;;;;;;;17.13;74.90;100624.28;1675759;84;21270;-76
2022/10/14 10:48:50;;;;;;;19.75;14.85;;;;;;;17.17;74.32;100617.83;1676811;84;21054;-76
2022/10/14 10:51:31;;;;;;;20.68;14.43;;;;;;;17.15;73.78;100615.77;1681734;84;21547;-83
2022/10/14 10:54:31;;;;;;;20.10;14.83;;;;;;;17.19;73.73;100615.11;1681691;84;21310;-76
2022/10/14 10:57:07;;;;;;;21.70;15.32;;;;;;;17.24;73.55;100615.68;1681862;84;21111;-76
2022/10/14 11:00:09;;;;;;;22.00;14.47;;;;;;;17.26;73.11;100612.92;1681531;84;21207;-81
2022/10/14 11:02:44;;;;;;;17.48;13.40;;;;;;;17.32;73.00;100615.19;1681747;84;21466;-76
2022/10/14 11:05:43;;;;;;;18.40;14.25;;;;;;;17.37;72.70;100599.86;1693107;83;21063;-76
2022/10/14 11:12:06;;;;;;;20.70;14.47;;;;;;;17.62;72.30;100593.88;1693959;83;21335;-74
2022/10/14 11:15:02;;;;;;;19.95;14.87;;;;;;;17.84;72.00;100590.73;1639463;86;21147;-75
2022/10/14 11:17:52;;;;;;;16.48;12.98;;;;;;;17.98;71.18;100588.03;1638532;86;21575;-77
2022/10/14 11:20:36;;;;;;;17.82;13.25;;;;;;;18.18;71.23;100580.58;1638634;86;21134;-76
2022/10/14 11:23:31;;;;;;;17.65;13.10;;;;;;;18.38;70.75;100581.45;1608581;87;21078;-76
2022/10/14 11:26:21;;;;;;;18.05;13.38;;;;;;;18.62;70.52;100580.73;1609195;87;21089;-76
2022/10/14 11:29:23;;;;;;;19.45;13.30;;;;;;;18.85;69.85;100579.22;1637513;86;21164;-76
2022/10/14 11:32:10;;;;;;;16.30;11.12;;;;;;;19.04;69.17;100579.66;1603379;87;21426;-75
2022/10/14 11:35:04;;;;;;;15.50;12.45;;;;;;;19.27;68.91;100570.55;1624617;86;21141;-76
2022/10/14 11:37:52;;;;;;;16.60;12.73;;;;;;;19.51;68.39;100570.13;1586730;88;21492;-77
2022/10/14 11:40:40;;;;;;;15.63;13.05;;;;;;;19.61;67.50;100567.16;1610126;87;21084;-74
2022/10/14 11:43:31;;;;;;;18.80;13.88;;;;;;;19.63;67.30;100564.41;1557169;90;22431;-78
2022/10/14 11:46:12;;;;;;;19.23;13.40;;;;;;;19.53;66.90;100569.52;1544922;92;21625;-73